createdAt,value
2019-01-29T00:00:09.627Z,12.70
2019-01-29T00:02:37.595Z,12.33
2019-01-29T00:05:05.673Z,11.97
2019-01-29T00:07:33.728Z,11.13
2019-01-29T00:10:01.653Z,11.37
2019-01-29T00:12:29.654Z,11.80
2019-01-29T00:14:57.610Z,11.37
2019-01-29T00:17:25.636Z,10.77
2019-01-29T00:19:53.634Z,11.10
2019-01-29T00:22:21.643Z,11.90
2019-01-29T00:24:49.574Z,11.57
2019-01-29T00:27:17.540Z,11.47
2019-01-29T00:29:45.464Z,11.27
2019-01-29T00:32:14.340Z,11.30
2019-01-29T00:34:42.281Z,11.47
2019-01-29T00:37:10.297Z,11.43
2019-01-29T00:39:38.295Z,11.17
2019-01-29T00:42:06.274Z,10.63
2019-01-29T00:44:34.256Z,10.33
2019-01-29T00:47:02.302Z,10.00
2019-01-29T00:49:30.295Z,10.57
2019-01-29T00:51:58.312Z,10.03
2019-01-29T00:54:26.255Z,10.07
2019-01-29T00:56:54.246Z,9.67
2019-01-29T00:59:22.302Z,9.23
2019-01-29T01:01:50.275Z,8.63
2019-01-29T01:04:18.184Z,7.90
2019-01-29T01:06:46.178Z,7.90
2019-01-29T01:09:14.166Z,6.90
2019-01-29T01:11:42.136Z,7.07
2019-01-29T01:14:10.085Z,7.43
2019-01-29T01:16:38.052Z,6.63
2019-01-29T01:19:06.102Z,7.03
2019-01-29T01:21:34.073Z,7.97
2019-01-29T01:24:02.010Z,7.30
2019-01-29T01:26:29.991Z,7.97
2019-01-29T01:28:57.975Z,8.73
2019-01-29T01:31:25.886Z,8.80
2019-01-29T01:33:53.827Z,10.27
2019-01-29T01:36:21.823Z,9.43
2019-01-29T01:38:49.766Z,9.07
2019-01-29T01:41:17.799Z,10.20
2019-01-29T01:43:45.791Z,9.30
2019-01-29T01:46:13.741Z,9.53
2019-01-29T01:48:41.688Z,10.40
2019-01-29T01:51:09.681Z,10.20
2019-01-29T01:53:37.635Z,10.73
2019-01-29T01:56:05.590Z,10.67
2019-01-29T01:58:33.607Z,10.50
2019-01-29T02:01:01.571Z,10.13
2019-01-29T02:03:29.503Z,9.67
2019-01-29T02:05:57.456Z,9.27
2019-01-29T02:08:25.395Z,8.17
2019-01-29T02:10:53.441Z,8.50
2019-01-29T02:13:22.804Z,8.27
2019-01-29T02:15:50.688Z,8.03
2019-01-29T02:18:19.044Z,7.17
2019-01-29T02:20:46.987Z,8.00
2019-01-29T02:23:14.915Z,8.77
2019-01-29T02:25:42.850Z,9.27
2019-01-29T02:28:11.373Z,9.40
2019-01-29T02:30:39.735Z,9.60
2019-01-29T02:33:07.669Z,9.70
2019-01-29T02:35:35.568Z,9.80
2019-01-29T02:38:03.505Z,8.83
2019-01-29T02:40:31.445Z,11.13
2019-01-29T02:42:59.820Z,10.50
2019-01-29T02:45:27.723Z,10.83
2019-01-29T02:47:55.700Z,9.30
2019-01-29T02:50:23.759Z,10.33
2019-01-29T02:52:51.741Z,10.47
2019-01-29T02:55:19.690Z,10.67
2019-01-29T02:57:47.645Z,10.17
2019-01-29T03:16:01.536Z,9.70
2019-01-29T03:18:29.498Z,11.03
2019-01-29T03:20:57.430Z,10.53
2019-01-29T03:23:27.484Z,11.60
2019-01-29T03:25:55.028Z,11.00
2019-01-29T03:28:22.968Z,11.90
2019-01-29T03:30:50.961Z,10.87
2019-01-29T03:33:18.969Z,11.40
2019-01-29T03:35:46.933Z,12.43
2019-01-29T03:38:14.903Z,11.47
2019-01-29T03:40:42.905Z,11.93
2019-01-29T03:43:10.909Z,11.50
2019-01-29T03:45:38.868Z,11.33
2019-01-29T03:48:06.817Z,10.17
2019-01-29T03:50:34.807Z,12.20
2019-01-29T03:53:02.770Z,11.07
2019-01-29T03:55:30.701Z,9.27
2019-01-29T03:57:58.686Z,10.83
2019-01-29T04:00:27.124Z,10.40
2019-01-29T04:02:55.050Z,11.10
2019-01-29T04:05:23.034Z,10.70
2019-01-29T04:07:51.034Z,11.03
2019-01-29T04:10:18.982Z,11.83
2019-01-29T04:12:46.926Z,11.80
2019-01-29T04:15:15.685Z,11.20
2019-01-29T04:17:43.601Z,11.70
2019-01-29T04:20:12.757Z,10.83
2019-01-29T04:22:40.756Z,10.07
2019-01-29T04:25:08.794Z,10.33
2019-01-29T04:27:37.919Z,9.60
2019-01-29T04:30:07.233Z,8.80
2019-01-29T04:32:36.246Z,10.20
2019-01-29T04:35:04.586Z,9.17
2019-01-29T04:37:32.485Z,9.40
2019-01-29T04:40:00.481Z,9.27
2019-01-29T04:42:28.419Z,9.40
2019-01-29T04:44:56.396Z,9.00
2019-01-29T04:47:24.304Z,9.33
2019-01-29T04:49:53.706Z,8.23
2019-01-29T04:52:21.776Z,9.27
2019-01-29T04:54:49.713Z,8.97
2019-01-29T04:57:17.710Z,9.37
2019-01-29T04:59:45.689Z,9.37
2019-01-29T05:02:13.597Z,8.67
2019-01-29T05:04:41.655Z,8.30
2019-01-29T05:07:09.602Z,9.60
2019-01-29T05:09:37.670Z,8.97
2019-01-29T05:12:05.615Z,9.67
2019-01-29T05:14:33.577Z,9.07
2019-01-29T05:17:01.578Z,8.47
2019-01-29T05:19:29.553Z,8.70
2019-01-29T05:21:57.486Z,9.83
2019-01-29T05:24:25.440Z,8.93
2019-01-29T05:26:53.362Z,9.93
2019-01-29T05:29:21.318Z,9.20
2019-01-29T05:31:49.242Z,8.83
2019-01-29T05:34:17.214Z,9.13
2019-01-29T05:36:45.170Z,9.77
2019-01-29T05:39:13.148Z,10.10
2019-01-29T05:41:41.076Z,9.83
2019-01-29T05:44:09.057Z,9.67
2019-01-29T05:46:36.998Z,9.43
2019-01-29T05:49:04.948Z,8.50
2019-01-29T05:51:32.864Z,9.20
2019-01-29T05:54:00.846Z,9.48
2019-01-29T05:56:30.931Z,8.63
2019-01-29T05:58:58.908Z,8.70
2019-01-29T06:01:26.919Z,8.73
2019-01-29T06:03:54.921Z,9.20
2019-01-29T06:06:22.876Z,8.47
2019-01-29T06:08:50.815Z,9.60
2019-01-29T06:11:18.800Z,9.03
2019-01-29T06:13:46.737Z,9.03
2019-01-29T06:16:14.723Z,9.33
2019-01-29T06:18:42.668Z,8.93
2019-01-29T06:21:10.666Z,7.93
2019-01-29T06:23:38.578Z,8.73
2019-01-29T06:26:06.559Z,10.57
2019-01-29T06:28:34.654Z,8.40
2019-01-29T06:31:02.627Z,11.03
2019-01-29T06:33:30.578Z,9.33
2019-01-29T06:35:58.536Z,9.83
2019-01-29T06:38:26.478Z,9.67
2019-01-29T06:40:54.406Z,10.70
2019-01-29T06:43:22.420Z,10.23
2019-01-29T06:45:50.429Z,9.07
2019-01-29T06:48:18.784Z,9.60
2019-01-29T06:50:46.789Z,9.43
2019-01-29T06:53:14.992Z,11.78
2019-01-29T06:55:42.936Z,10.63
2019-01-29T06:58:10.922Z,10.57
2019-01-29T07:00:38.913Z,10.40
2019-01-29T07:03:06.901Z,10.40
2019-01-29T07:05:34.924Z,10.13
2019-01-29T07:08:02.894Z,10.03
2019-01-29T07:10:30.864Z,10.10
2019-01-29T07:12:58.846Z,10.93
2019-01-29T07:15:44.381Z,10.07
2019-01-29T07:18:29.726Z,10.20
2019-01-29T07:20:57.705Z,9.77
2019-01-29T07:23:25.650Z,9.50
2019-01-29T07:25:53.593Z,10.33
2019-01-29T07:28:21.606Z,10.37
2019-01-29T07:30:49.726Z,11.87
2019-01-29T07:33:17.665Z,12.50
2019-01-29T07:35:45.634Z,10.57
2019-01-29T07:38:13.597Z,16.45
2019-01-29T07:40:41.642Z,13.27
2019-01-29T07:43:09.673Z,11.90
2019-01-29T07:45:37.594Z,11.77
2019-01-29T07:48:05.538Z,11.80
2019-01-29T07:50:33.509Z,12.33
2019-01-29T07:53:01.534Z,11.17
2019-01-29T07:55:29.458Z,11.70
2019-01-29T07:57:57.470Z,11.70
2019-01-29T08:00:25.454Z,11.47
2019-01-29T08:02:53.362Z,12.63
2019-01-29T08:05:21.361Z,13.90
2019-01-29T08:07:49.397Z,13.00
2019-01-29T08:10:17.827Z,10.43
2019-01-29T08:12:45.794Z,11.57
2019-01-29T08:15:13.832Z,13.40
2019-01-29T08:17:41.844Z,10.83
2019-01-29T08:20:10.126Z,11.10
2019-01-29T08:22:38.083Z,10.63
2019-01-29T08:25:06.120Z,11.23
2019-01-29T08:27:34.176Z,10.27
2019-01-29T08:30:02.109Z,9.60
2019-01-29T08:32:30.086Z,8.73
2019-01-29T08:34:58.196Z,9.47
2019-01-29T08:37:26.168Z,9.37
2019-01-29T08:39:54.223Z,9.70
2019-01-29T08:42:22.232Z,9.70
2019-01-29T08:44:50.183Z,10.07
2019-01-29T08:47:18.188Z,9.50
2019-01-29T08:49:46.200Z,10.43
2019-01-29T08:52:14.232Z,7.83
2019-01-29T08:54:42.176Z,10.00
2019-01-29T08:57:10.168Z,10.27
2019-01-29T08:59:38.079Z,9.40
2019-01-29T09:02:07.983Z,9.67
2019-01-29T09:04:35.716Z,9.93
2019-01-29T09:07:03.649Z,10.30
2019-01-29T09:09:31.641Z,10.43
2019-01-29T09:11:59.669Z,11.97
2019-01-29T09:14:27.649Z,13.67
2019-01-29T09:16:55.726Z,13.03
2019-01-29T09:19:23.755Z,12.53
2019-01-29T09:21:51.772Z,11.33
2019-01-29T09:24:19.734Z,11.00
2019-01-29T09:26:47.703Z,12.07
2019-01-29T09:29:17.812Z,10.73
2019-01-29T09:31:45.421Z,11.87
2019-01-29T09:34:13.504Z,11.20
2019-01-29T09:36:41.466Z,10.30
2019-01-29T09:39:10.267Z,10.80
2019-01-29T09:41:38.208Z,11.00
2019-01-29T09:44:06.182Z,11.13
2019-01-29T09:46:34.148Z,11.13
2019-01-29T09:49:02.198Z,11.33
2019-01-29T09:51:30.185Z,10.50
2019-01-29T09:53:58.203Z,10.47
2019-01-29T09:56:26.152Z,11.27
2019-01-29T09:58:54.078Z,10.63
2019-01-29T10:01:22.019Z,11.67
2019-01-29T10:03:49.993Z,10.27
2019-01-29T10:06:18.127Z,10.27
2019-01-29T10:08:46.118Z,11.50
2019-01-29T10:11:14.124Z,11.03
2019-01-29T10:13:42.128Z,11.17
2019-01-29T10:16:10.117Z,11.30
2019-01-29T10:18:38.032Z,12.33
2019-01-29T10:21:06.087Z,11.13
2019-01-29T10:23:34.033Z,9.63
2019-01-29T10:26:01.978Z,10.73
2019-01-29T10:28:29.949Z,10.63
2019-01-29T10:30:57.980Z,11.77
2019-01-29T10:33:25.930Z,11.00
2019-01-29T10:35:53.856Z,10.93
2019-01-29T10:38:21.829Z,10.43
2019-01-29T10:40:49.863Z,11.40
2019-01-29T10:43:17.816Z,12.57
2019-01-29T10:45:45.832Z,11.83
2019-01-29T10:48:13.796Z,13.10
2019-01-29T10:50:41.899Z,13.67
2019-01-29T10:53:09.907Z,14.97
2019-01-29T10:55:46.780Z,14.87
2019-01-29T10:58:07.539Z,14.23
2019-01-29T11:00:36.863Z,23.90
2019-01-29T11:03:05.037Z,28.80
2019-01-29T11:05:33.317Z,17.65
2019-01-29T11:08:01.427Z,19.83
2019-01-29T11:10:29.369Z,17.67
2019-01-29T11:12:57.414Z,20.70
2019-01-29T11:15:26.674Z,12.30
2019-01-29T11:17:54.660Z,13.83
2019-01-29T11:20:22.706Z,11.70
2019-01-29T11:22:50.696Z,11.37
2019-01-29T11:25:19.880Z,13.00
2019-01-29T11:27:47.852Z,11.23
2019-01-29T11:30:16.782Z,10.33
2019-01-29T11:32:44.699Z,10.50
2019-01-29T11:35:12.708Z,10.87
2019-01-29T11:37:40.676Z,10.47
2019-01-29T11:40:09.868Z,10.87
2019-01-29T11:42:37.853Z,10.77
2019-01-29T11:45:06.943Z,10.90
2019-01-29T11:47:34.953Z,11.87
2019-01-29T11:50:02.946Z,11.50
2019-01-29T11:52:30.998Z,11.70
2019-01-29T11:54:58.961Z,10.80
2019-01-29T11:57:26.967Z,10.63
2019-01-29T11:59:54.930Z,11.30
2019-01-29T12:02:28.245Z,9.63
2019-01-29T12:04:52.474Z,9.27
2019-01-29T12:07:20.493Z,9.23
2019-01-29T12:09:48.423Z,9.33
2019-01-29T12:12:16.458Z,8.60
2019-01-29T12:14:44.414Z,11.80
2019-01-29T12:17:12.446Z,8.93
2019-01-29T12:19:40.375Z,8.03
2019-01-29T12:22:08.485Z,8.93
2019-01-29T12:24:36.510Z,8.67
2019-01-29T12:27:04.502Z,8.87
2019-01-29T12:29:32.410Z,8.20
2019-01-29T12:32:00.390Z,8.87
2019-01-29T12:34:28.408Z,8.23
2019-01-29T12:36:56.348Z,8.17
2019-01-29T12:39:24.293Z,7.47
2019-01-29T12:41:52.305Z,7.13
2019-01-29T12:44:20.284Z,8.33
2019-01-29T12:46:48.234Z,7.33
2019-01-29T12:49:16.209Z,8.57
2019-01-29T12:52:02.359Z,9.00
2019-01-29T12:54:30.371Z,9.87
2019-01-29T12:56:58.333Z,9.93
2019-01-29T12:59:26.307Z,8.80
2019-01-29T13:01:54.255Z,9.57
2019-01-29T13:04:22.239Z,9.50
2019-01-29T13:06:50.199Z,8.43
2019-01-29T13:09:18.191Z,7.10
2019-01-29T13:11:46.112Z,7.10
2019-01-29T13:14:14.067Z,7.00
2019-01-29T13:16:42.038Z,7.70
2019-01-29T13:19:09.989Z,7.80
2019-01-29T13:21:38.010Z,6.50
2019-01-29T13:24:05.939Z,6.73
2019-01-29T13:26:33.978Z,6.70
2019-01-29T13:29:01.945Z,7.00
2019-01-29T13:31:29.896Z,5.77
2019-01-29T13:33:57.878Z,6.60
2019-01-29T13:36:25.893Z,7.20
2019-01-29T13:38:53.854Z,5.90
2019-01-29T13:41:21.858Z,6.90
2019-01-29T13:43:49.812Z,7.23
2019-01-29T13:46:17.857Z,7.53
2019-01-29T13:48:45.856Z,6.77
2019-01-29T13:51:14.712Z,7.10
2019-01-29T13:53:42.677Z,6.20
2019-01-29T13:56:10.608Z,7.93
2019-01-29T13:58:38.579Z,6.87
2019-01-29T14:01:06.577Z,6.80
2019-01-29T14:03:34.541Z,6.97
2019-01-29T14:06:02.518Z,6.47
2019-01-29T14:08:30.577Z,8.03
2019-01-29T14:10:58.614Z,7.20
2019-01-29T14:13:26.677Z,6.50
2019-01-29T14:15:56.214Z,7.67
2019-01-29T14:18:25.294Z,7.07
2019-01-29T14:20:53.285Z,7.03
2019-01-29T14:23:21.230Z,7.20
2019-01-29T14:25:49.174Z,7.67
2019-01-29T14:28:17.216Z,7.80
2019-01-29T14:30:45.234Z,7.30
2019-01-29T14:33:13.193Z,6.20
2019-01-29T14:35:41.148Z,6.73
2019-01-29T14:38:31.250Z,6.83
2019-01-29T14:41:01.209Z,7.83
2019-01-29T14:43:29.628Z,7.57
2019-01-29T14:45:58.579Z,6.30
2019-01-29T14:48:27.168Z,6.93
2019-01-29T14:50:56.082Z,8.40
2019-01-29T14:53:25.494Z,7.57
2019-01-29T14:55:53.454Z,7.10
2019-01-29T14:58:21.585Z,8.07
2019-01-29T15:00:51.042Z,7.23
2019-01-29T15:03:20.800Z,6.57
2019-01-29T15:05:49.181Z,6.30
2019-01-29T15:08:17.213Z,7.60
2019-01-29T15:10:45.169Z,7.57
2019-01-29T15:13:14.025Z,10.30
2019-01-29T15:15:47.596Z,9.90
2019-01-29T15:18:20.418Z,8.40
2019-01-29T15:20:48.572Z,7.10
2019-01-29T15:23:16.768Z,7.73
2019-01-29T15:25:45.310Z,15.87
2019-01-29T15:28:13.321Z,8.13
2019-01-29T15:30:41.468Z,7.33
2019-01-29T15:33:09.430Z,8.17
2019-01-29T15:35:37.474Z,8.00
2019-01-29T15:38:05.471Z,7.77
2019-01-29T15:40:33.441Z,7.63
2019-01-29T15:43:01.929Z,7.93
2019-01-29T15:45:29.995Z,6.73
2019-01-29T15:47:58.494Z,8.43
2019-01-29T15:50:26.489Z,9.10
2019-01-29T15:52:54.528Z,8.27
2019-01-29T15:55:22.580Z,7.20
2019-01-29T15:57:50.552Z,6.90
2019-01-29T16:00:20.263Z,7.30
2019-01-29T16:02:48.298Z,7.63
2019-01-29T16:05:17.782Z,6.80
2019-01-29T16:07:45.903Z,8.10
2019-01-29T16:10:14.818Z,6.20
2019-01-29T16:12:42.922Z,6.63
2019-01-29T16:15:11.655Z,6.93
2019-01-29T16:17:39.672Z,6.33
2019-01-29T16:20:08.670Z,9.17
2019-01-29T16:22:36.763Z,6.63
2019-01-29T16:25:04.915Z,6.90
2019-01-29T16:27:32.957Z,7.00
2019-01-29T16:30:00.987Z,7.43
2019-01-29T16:32:28.949Z,7.27
2019-01-29T16:34:58.401Z,7.17
2019-01-29T16:37:27.030Z,7.00
2019-01-29T16:39:55.203Z,7.20
2019-01-29T16:42:23.220Z,6.07
2019-01-29T16:44:51.162Z,6.47
2019-01-29T16:47:19.120Z,6.43
2019-01-29T16:49:47.209Z,8.17
2019-01-29T16:52:15.178Z,6.43
2019-01-29T16:54:43.146Z,7.43
2019-01-29T16:57:11.247Z,6.70
2019-01-29T16:59:39.227Z,5.40
2019-01-29T17:02:07.186Z,6.17
2019-01-29T17:04:35.152Z,5.60
2019-01-29T17:07:03.103Z,6.07
2019-01-29T17:09:32.110Z,6.50
2019-01-29T17:12:00.086Z,5.63
2019-01-29T17:14:28.036Z,4.53
2019-01-29T17:16:56.028Z,5.10
2019-01-29T17:19:23.999Z,5.70
2019-01-29T17:21:51.993Z,5.10
2019-01-29T17:24:20.051Z,6.00
2019-01-29T17:26:48.197Z,5.47
2019-01-29T17:29:16.374Z,5.43
2019-01-29T17:31:44.382Z,5.17
2019-01-29T17:34:12.264Z,4.63
2019-01-29T17:36:40.238Z,5.20
2019-01-29T17:39:08.459Z,5.97
2019-01-29T17:41:36.412Z,5.43
2019-01-29T17:44:04.454Z,4.43
2019-01-29T17:46:32.398Z,5.43
2019-01-29T17:49:00.332Z,6.43
2019-01-29T17:51:28.286Z,6.40
2019-01-29T17:53:56.248Z,6.60
2019-01-29T17:56:24.225Z,4.87
2019-01-29T17:58:52.194Z,5.80
2019-01-29T18:01:20.543Z,6.07
2019-01-29T18:03:48.523Z,8.03
2019-01-29T18:06:16.473Z,12.90
2019-01-29T18:08:49.901Z,14.93
2019-01-29T18:11:14.079Z,19.07
2019-01-29T18:13:42.157Z,16.47
2019-01-29T18:16:10.245Z,15.43
2019-01-29T18:18:38.302Z,11.97
2019-01-29T18:21:06.429Z,10.17
2019-01-29T18:23:34.417Z,12.07
2019-01-29T18:26:02.345Z,14.63
2019-01-29T18:28:30.378Z,11.23
2019-01-29T18:30:58.346Z,13.70
2019-01-29T18:33:26.293Z,12.97
2019-01-29T18:35:54.351Z,12.80
2019-01-29T18:38:22.310Z,11.13
2019-01-29T18:40:51.615Z,11.63
2019-01-29T18:43:19.551Z,7.97
2019-01-29T18:45:47.504Z,7.57
2019-01-29T18:48:15.460Z,8.33
2019-01-29T18:50:43.404Z,9.40
2019-01-29T18:53:11.381Z,8.80
2019-01-29T18:55:39.453Z,7.87
2019-01-29T18:58:12.077Z,7.70
2019-01-29T19:00:37.386Z,8.10
2019-01-29T19:03:05.603Z,14.90
2019-01-29T19:05:33.708Z,11.67
2019-01-29T19:08:02.599Z,12.90
2019-01-29T19:10:30.666Z,10.50
2019-01-29T19:12:59.000Z,11.70
2019-01-29T19:15:27.074Z,8.73
2019-01-29T19:17:55.171Z,11.70
2019-01-29T19:20:23.684Z,10.60
2019-01-29T19:22:51.660Z,10.20
2019-01-29T19:25:19.650Z,7.70
2019-01-29T19:27:47.733Z,9.27
2019-01-29T19:30:19.844Z,13.00
2019-01-29T19:32:47.868Z,11.53
2019-01-29T19:35:16.114Z,10.47
2019-01-29T19:37:44.184Z,13.73
2019-01-29T19:40:12.435Z,15.17
2019-01-29T19:42:40.400Z,15.67
2019-01-29T19:45:10.038Z,16.53
2019-01-29T19:47:38.000Z,12.07
2019-01-29T19:50:07.752Z,13.10
2019-01-29T19:52:35.661Z,11.27
2019-01-29T19:55:03.630Z,8.20
2019-01-29T19:57:31.613Z,14.60
2019-01-29T19:59:59.562Z,12.53
2019-01-29T20:02:27.488Z,10.93
2019-01-29T20:04:55.822Z,8.83
2019-01-29T20:07:23.851Z,10.27
2019-01-29T20:09:52.286Z,9.20
2019-01-29T20:12:20.398Z,10.97
2019-01-29T20:14:48.474Z,11.33
2019-01-29T20:17:17.725Z,10.53
2019-01-29T20:19:45.662Z,8.43
2019-01-29T20:22:13.706Z,8.17
2019-01-29T20:24:42.018Z,8.30
2019-01-29T20:27:09.993Z,8.37
2019-01-29T20:29:37.946Z,7.20
2019-01-29T20:32:05.911Z,8.57
2019-01-29T20:34:33.845Z,7.30
2019-01-29T20:37:01.791Z,6.90
2019-01-29T20:39:34.833Z,7.80
2019-01-29T20:41:59.365Z,8.00
2019-01-29T20:44:27.281Z,7.90
2019-01-29T20:46:55.271Z,8.10
2019-01-29T20:49:23.268Z,7.80
2019-01-29T20:51:51.235Z,8.17
2019-01-29T20:54:19.231Z,7.97
2019-01-29T20:56:47.246Z,8.40
2019-01-29T20:59:15.324Z,8.73
2019-01-29T21:01:43.264Z,9.78
2019-01-29T21:04:11.251Z,9.00
2019-01-29T21:06:39.224Z,8.30
2019-01-29T21:09:08.325Z,9.30
2019-01-29T21:11:36.275Z,8.47
2019-01-29T21:14:04.314Z,9.20
2019-01-29T21:16:32.326Z,8.97
2019-01-29T21:19:00.296Z,8.60
2019-01-29T21:21:28.265Z,11.47
2019-01-29T21:23:56.229Z,8.37
2019-01-29T21:26:24.171Z,9.17
2019-01-29T21:28:52.150Z,7.27
2019-01-29T21:31:20.104Z,9.27
2019-01-29T21:33:48.059Z,9.03
2019-01-29T21:36:16.014Z,8.17
2019-01-29T21:38:43.972Z,8.43
2019-01-29T21:41:11.944Z,8.73
2019-01-29T21:43:39.904Z,15.93
2019-01-29T21:46:07.895Z,13.55
2019-01-29T21:48:36.053Z,11.67
2019-01-29T21:51:03.999Z,10.40
2019-01-29T21:53:32.017Z,10.80
2019-01-29T21:55:59.990Z,9.00
2019-01-29T21:58:27.946Z,11.07
2019-01-29T22:00:55.866Z,9.60
2019-01-29T22:03:23.841Z,8.40
2019-01-29T22:05:51.812Z,9.27
2019-01-29T22:08:19.772Z,9.53
2019-01-29T22:10:47.689Z,10.10
2019-01-29T22:13:15.680Z,8.17
2019-01-29T22:15:43.634Z,10.13
2019-01-29T22:18:12.442Z,10.77
2019-01-29T22:20:40.509Z,9.80
2019-01-29T22:23:08.476Z,11.60
2019-01-29T22:25:36.490Z,10.43
2019-01-29T22:28:05.193Z,10.80
2019-01-29T22:30:34.258Z,10.70
2019-01-29T22:33:02.208Z,11.43
2019-01-29T22:35:30.162Z,11.00
2019-01-29T22:37:58.285Z,11.53
2019-01-29T22:40:26.597Z,11.33
2019-01-29T22:42:54.662Z,12.03
2019-01-29T22:45:22.610Z,12.03
2019-01-29T22:47:50.534Z,12.17
2019-01-29T22:50:22.571Z,11.03
2019-01-29T22:52:50.500Z,12.10
2019-01-29T22:55:18.506Z,12.97
2019-01-29T22:57:46.462Z,13.33
2019-01-29T23:00:18.378Z,13.67
2019-01-29T23:02:46.327Z,13.33
2019-01-29T23:05:14.294Z,12.93
2019-01-29T23:07:42.295Z,13.47
2019-01-29T23:10:12.436Z,14.03
2019-01-29T23:12:40.384Z,13.77
2019-01-29T23:15:09.778Z,14.80
2019-01-29T23:17:37.830Z,14.40
2019-01-29T23:20:06.378Z,15.00
2019-01-29T23:22:34.362Z,14.87
2019-01-29T23:25:02.306Z,14.87
2019-01-29T23:27:30.343Z,15.67
2019-01-29T23:29:58.337Z,15.50
2019-01-29T23:32:26.284Z,15.27
2019-01-29T23:34:54.248Z,15.30
2019-01-29T23:37:22.163Z,15.67
2019-01-29T23:39:50.114Z,16.00
2019-01-29T23:42:18.086Z,15.70
2019-01-29T23:44:46.013Z,15.80
2019-01-29T23:47:13.970Z,16.83
2019-01-29T23:49:42.004Z,15.87
2019-01-29T23:52:09.952Z,15.17
2019-01-29T23:54:37.943Z,16.27
2019-01-29T23:57:05.886Z,16.67
2019-01-29T23:59:33.921Z,15.93
